Time;durP1;ratioP1;P1;durP2;ratioP2;P2;SDS_P1;SDS_P2;PMS_P1;PMS_P2;Temp;Humidity;BMP_temperature;BMP_pressure;BME280_temperature;BME280_humidity;BME280_pressure;Samples;Min_cycle;Max_cycle;Signal;HPM_P1;HPM_P2
2022/06/17 00:00:51;;;;;;;;;;;;;;;25.50;43.94;99276.59;4492220;31;34169;-83
2022/06/17 00:03:19;;;;;;;;;;;;;;;25.50;43.73;99277.47;4499498;31;34281;-83
2022/06/17 00:05:46;;;;;;;;;;;;;;;25.04;44.87;99265.38;4499454;31;34905;-82
2022/06/17 00:08:18;;;;;;;;;;;;;;;25.61;43.70;99267.22;4495445;31;33064;-82
2022/06/17 00:10:45;;;;;;;;;;;;;;;25.68;43.59;99267.75;4499338;31;33614;-83
2022/06/17 00:13:13;;;;;;;;;;;;;;;25.85;43.18;99274.97;4499536;31;34445;-81
2022/06/17 00:15:41;;;;;;;;;;;;;;;25.91;43.04;99274.66;4499583;31;35038;-83
2022/06/17 00:18:09;;;;;;;;;;;;;;;26.04;42.82;99278.44;4479200;31;34222;-83
2022/06/17 00:20:37;;;;;;;;;;;;;;;26.06;42.38;99265.94;4476186;32;33544;-83
2022/06/17 00:23:05;;;;;;;;;;;;;;;26.00;42.64;99271.56;4485785;31;33936;-83
2022/06/17 00:25:34;;;;;;;;;;;;;;;26.10;42.16;99269.28;4497684;31;33937;-83
2022/06/17 00:28:02;;;;;;;;;;;;;;;26.03;42.47;99276.72;4501865;31;33152;-82
2022/06/17 00:30:31;;;;;;;;;;;;;;;26.20;41.74;99274.09;4497966;31;34876;-82
2022/06/17 00:33:00;;;;;;;;;;;;;;;26.20;41.80;99274.09;4499257;31;34079;-82
2022/06/17 00:35:32;;;;;;;;;;;;;;;26.16;41.75;99277.84;4498010;31;34080;-83
2022/06/17 00:38:00;;;;;;;;;;;;;;;26.05;42.05;99280.16;4499833;31;33492;-82
2022/06/17 00:40:29;;;;;;;;;;;;;;;25.30;43.51;99293.44;4506842;31;33537;-81
2022/06/17 00:42:56;;;;;;;;;;;;;;;25.54;42.77;99289.66;4486556;31;34292;-82
2022/06/17 00:45:35;;;;;;;;;;;;;;;25.59;43.15;99292.94;4496672;31;34177;-82
2022/06/17 00:48:06;;;;;;;;;;;;;;;25.59;43.03;99277.03;4499441;31;33463;-82
2022/06/17 00:50:36;;;;;;;;;;;;;;;25.61;42.88;99275.16;4505624;31;33770;-84
2022/06/17 00:53:06;;;;;;;;;;;;;;;25.34;43.48;99268.47;4491241;31;34168;-83
2022/06/17 00:55:42;;;;;;;;;;;;;;;25.29;43.68;99266.03;4501873;31;35007;-83
2022/06/17 00:58:15;;;;;;;;;;;;;;;25.41;43.28;99257.50;4500998;31;33133;-82
2022/06/17 01:00:42;;;;;;;;;;;;;;;25.23;43.77;99264.53;4498284;31;33977;-83
2022/06/17 01:03:13;;;;;;;;;;;;;;;24.88;44.49;99259.91;4498047;31;34276;-83
2022/06/17 01:05:41;;;;;;;;;;;;;;;25.20;43.26;99262.00;4498118;31;33940;-84
2022/06/17 01:11:12;;;;;;;;;;;;;;;24.18;46.12;99255.81;4513793;31;35124;-83
2022/06/17 01:13:40;;;;;;;;;;;;;;;23.84;47.14;99272.22;4515140;31;34979;-83
2022/06/17 01:16:08;;;;;;;;;;;;;;;24.38;45.74;99273.53;4513911;31;34154;-83
2022/06/17 01:18:37;;;;;;;;;;;;;;;24.57;45.33;99263.88;4504745;31;34123;-83
2022/06/17 01:21:08;;;;;;;;;;;;;;;23.72;47.90;99271.78;4485112;31;34990;-84
2022/06/17 01:23:39;;;;;;;;;;;;;;;24.48;45.85;99275.75;4485250;31;33752;-83
2022/06/17 01:26:06;;;;;;;;;;;;;;;24.36;46.29;99275.34;4484662;31;35136;-84
2022/06/17 01:28:33;;;;;;;;;;;;;;;23.45;48.25;99286.00;4500160;31;32988;-84
2022/06/17 01:31:04;;;;;;;;;;;;;;;22.80;50.23;99283.03;4501720;31;32985;-82
2022/06/17 01:33:33;;;;;;;;;;;;;;;21.59;53.34;99289.63;4496043;31;34247;-84
2022/06/17 01:36:05;;;;;;;;;;;;;;;22.02;52.54;99304.12;4498713;31;33597;-83
2022/06/17 01:38:32;;;;;;;;;;;;;;;22.56;51.02;99303.25;4484803;31;32640;-82
2022/06/17 01:41:00;;;;;;;;;;;;;;;21.69;53.49;99306.03;4491993;31;34198;-82
2022/06/17 01:43:48;;;;;;;;;;;;;;;22.40;51.91;99307.34;4500171;31;34154;-82
2022/06/17 01:46:17;;;;;;;;;;;;;;;22.59;51.03;99307.59;4507163;31;34045;-82
2022/06/17 01:48:52;;;;;;;;;;;;;;;21.96;52.70;99314.00;4487142;31;33156;-83
2022/06/17 01:51:21;;;;;;;;;;;;;;;21.54;54.25;99317.91;4492222;31;34188;-84
2022/06/17 01:53:51;;;;;;;;;;;;;;;21.93;53.27;99314.09;4492049;31;34559;-82
2022/06/17 01:56:18;;;;;;;;;;;;;;;22.28;52.14;99316.53;4492781;31;34825;-82
2022/06/17 01:58:47;;;;;;;;;;;;;;;21.98;52.84;99323.63;4488126;31;33090;-83
2022/06/17 02:01:15;;;;;;;;;;;;;;;21.17;55.01;99323.34;4498728;31;35834;-81
2022/06/17 02:03:44;;;;;;;;;;;;;;;21.73;53.35;99322.66;4484739;31;33731;-82
2022/06/17 02:06:11;;;;;;;;;;;;;;;22.20;52.21;99323.84;4486523;31;34941;-83
2022/06/17 02:08:39;;;;;;;;;;;;;;;23.00;50.03;99318.53;4498607;31;33349;-82
2022/06/17 02:11:07;;;;;;;;;;;;;;;22.93;50.09;99311.75;4498652;31;33875;-83
2022/06/17 02:13:39;;;;;;;;;;;;;;;22.16;52.33;99316.94;4498477;31;34442;-85
2022/06/17 02:16:07;;;;;;;;;;;;;;;21.77;53.12;99317.22;4480848;31;34676;-85
2022/06/17 02:18:34;;;;;;;;;;;;;;;22.48;51.03;99318.50;4482669;32;32929;-82
2022/06/17 02:21:02;;;;;;;;;;;;;;;22.63;50.81;99309.22;4481234;32;33965;-84
2022/06/17 02:23:30;;;;;;;;;;;;;;;22.08;51.96;99313.63;4482427;32;33551;-85
2022/06/17 02:25:57;;;;;;;;;;;;;;;22.51;51.01;99302.56;4481841;31;35052;-83
2022/06/17 02:28:26;;;;;;;;;;;;;;;21.66;53.11;99316.69;4482943;32;33912;-85
2022/06/17 02:30:53;;;;;;;;;;;;;;;21.79;52.50;99312.78;4482403;32;34202;-82
2022/06/17 02:33:22;;;;;;;;;;;;;;;21.99;52.19;99306.00;4481373;32;35349;-83
2022/06/17 02:35:52;;;;;;;;;;;;;;;21.57;53.68;99311.69;4489867;31;34223;-85
2022/06/17 02:38:21;;;;;;;;;;;;;;;21.59;53.67;99309.84;4489572;31;33327;-85
2022/06/17 02:40:50;;;;;;;;;;;;;;;22.08;52.01;99309.19;4481045;31;33907;-84
2022/06/17 02:43:18;;;;;;;;;;;;;;;22.47;50.92;99311.50;4481218;32;34471;-84
2022/06/17 02:45:47;;;;;;;;;;;;;;;21.91;52.97;99311.53;4481176;32;33884;-86
2022/06/17 02:48:25;;;;;;;;;;;;;;;22.00;52.65;99310.38;4482504;31;33525;-82
2022/06/17 02:50:53;;;;;;;;;;;;;;;20.64;56.94;99328.28;4480979;32;35011;-84
2022/06/17 02:53:26;;;;;;;;;;;;;;;21.02;56.11;99321.13;4480701;32;35058;-87
2022/06/17 02:55:54;;;;;;;;;;;;;;;20.89;56.62;99323.25;4484867;31;34019;-84
2022/06/17 02:58:37;;;;;;;;;;;;;;;21.41;55.10;99320.97;4496270;31;33258;-86
2022/06/17 03:01:07;;;;;;;;;;;;;;;20.84;56.64;99327.78;4498448;31;34062;-84
2022/06/17 03:03:35;;;;;;;;;;;;;;;20.75;57.13;99328.00;4498690;31;34594;-84
2022/06/17 03:06:02;;;;;;;;;;;;;;;21.11;55.83;99318.25;4503151;31;34140;-84
2022/06/17 03:08:32;;;;;;;;;;;;;;;21.76;54.20;99312.84;4499953;31;34055;-83
2022/06/17 03:11:00;;;;;;;;;;;;;;;22.15;53.09;99307.28;4500052;31;33945;-84
2022/06/17 03:13:46;;;;;;;;;;;;;;;22.80;50.86;99306.84;4500249;31;35319;-84
2022/06/17 03:16:15;;;;;;;;;;;;;;;22.13;52.67;99310.88;4488949;31;34126;-83
2022/06/17 03:18:43;;;;;;;;;;;;;;;21.99;53.30;99306.00;4483078;32;32788;-85
2022/06/17 03:21:11;;;;;;;;;;;;;;;22.44;51.96;99303.69;4484286;32;33794;-85
2022/06/17 03:23:42;;;;;;;;;;;;;;;23.31;49.50;99305.94;4485863;31;34039;-83
2022/06/17 03:26:16;;;;;;;;;;;;;;;22.80;51.01;99308.63;4489691;31;34773;-82
2022/06/17 03:28:48;;;;;;;;;;;;;;;22.84;50.57;99310.22;4488903;31;32927;-82
2022/06/17 03:31:28;;;;;;;;;;;;;;;22.74;51.13;99324.72;4499804;31;34107;-83
2022/06/17 03:33:57;;;;;;;;;;;;;;;22.38;52.18;99318.88;4491993;31;33807;-85
2022/06/17 03:36:28;;;;;;;;;;;;;;;22.21;52.55;99324.72;4488430;31;34237;-87
2022/06/17 03:38:56;;;;;;;;;;;;;;;22.50;52.37;99322.00;4509239;31;33856;-82
2022/06/17 03:41:25;;;;;;;;;;;;;;;21.75;53.81;99319.06;4507548;31;33949;-85
2022/06/17 03:43:54;;;;;;;;;;;;;;;21.76;54.08;99323.41;4515781;31;35203;-82
2022/06/17 03:46:22;;;;;;;;;;;;;;;21.31;55.37;99330.87;4514660;31;34508;-83
2022/06/17 03:48:59;;;;;;;;;;;;;;;22.64;52.40;99328.56;4506602;31;32985;-84
2022/06/17 03:51:28;;;;;;;;;;;;;;;23.06;50.25;99336.81;4497759;31;34223;-84
2022/06/17 03:53:56;;;;;;;;;;;;;;;23.15;50.20;99331.22;4506007;31;34398;-83
2022/06/17 03:56:25;;;;;;;;;;;;;;;23.63;49.87;99334.75;4508784;31;34934;-84
2022/06/17 03:58:54;;;;;;;;;;;;;;;23.46;49.46;99345.97;4498887;31;33236;-84
2022/06/17 04:01:34;;;;;;;;;;;;;;;23.10;50.58;99341.09;4513889;31;35086;-82
2022/06/17 04:04:02;;;;;;;;;;;;;;;22.39;52.13;99347.91;4506293;31;34396;-84
2022/06/17 04:06:30;;;;;;;;;;;;;;;22.33;52.64;99354.22;4490404;31;34002;-84
2022/06/17 04:08:59;;;;;;;;;;;;;;;23.31;50.44;99347.41;4484487;31;33268;-84
2022/06/17 04:11:29;;;;;;;;;;;;;;;23.54;49.83;99349.19;4500313;31;34256;-84
2022/06/17 04:13:57;;;;;;;;;;;;;;;23.44;50.21;99353.09;4497683;31;35299;-83
2022/06/17 04:16:27;;;;;;;;;;;;;;;22.93;51.96;99357.56;4499860;31;34267;-84
2022/06/17 04:19:01;;;;;;;;;;;;;;;23.31;50.41;99350.91;4499562;31;33267;-84
2022/06/17 04:21:29;;;;;;;;;;;;;;;21.76;54.46;99370.91;4512234;31;33836;-84
2022/06/17 04:23:56;;;;;;;;;;;;;;;20.90;57.12;99378.53;4506716;31;35247;-83
2022/06/17 04:26:28;;;;;;;;;;;;;;;21.46;55.60;99369.16;4507434;31;35122;-84
2022/06/17 04:29:03;;;;;;;;;;;;;;;21.90;54.23;99367.03;4511935;31;34131;-86
2022/06/17 04:31:32;;;;;;;;;;;;;;;23.05;51.64;99361.53;4512324;31;34240;-82
2022/06/17 04:34:07;;;;;;;;;;;;;;;22.04;53.88;99356.88;4505281;31;34349;-82
2022/06/17 04:36:42;;;;;;;;;;;;;;;22.09;54.31;99362.91;4496840;31;33944;-82
2022/06/17 04:39:13;;;;;;;;;;;;;;;22.46;53.64;99348.53;4497868;31;33427;-81
2022/06/17 04:41:41;;;;;;;;;;;;;;;22.80;52.56;99366.78;4499329;31;33968;-82
2022/06/17 04:44:11;;;;;;;;;;;;;;;23.16;52.52;99351.44;4498301;31;33763;-83
2022/06/17 04:46:43;;;;;;;;;;;;;;;23.62;51.16;99357.69;4492518;31;33620;-84
2022/06/17 04:49:16;;;;;;;;;;;;;;;23.48;51.08;99357.34;4498130;31;33432;-84
2022/06/17 04:51:43;;;;;;;;;;;;;;;23.15;50.90;99347.09;4498137;31;35072;-83
2022/06/17 04:54:10;;;;;;;;;;;;;;;23.45;51.12;99354.81;4498307;31;34364;-82
2022/06/17 04:56:42;;;;;;;;;;;;;;;22.73;53.17;99355.56;4497017;31;34396;-83
2022/06/17 04:59:30;;;;;;;;;;;;;;;23.50;51.18;99355.53;4498967;31;33284;-84
2022/06/17 05:01:58;;;;;;;;;;;;;;;24.21;49.61;99359.00;4498315;31;34358;-85
2022/06/17 05:04:27;;;;;;;;;;;;;;;24.68;48.09;99357.09;4490709;31;34846;-85
2022/06/17 05:06:54;;;;;;;;;;;;;;;25.30;47.07;99354.47;4499535;31;35026;-83
2022/06/17 05:09:37;;;;;;;;;;;;;;;25.49;46.09;99358.00;4497647;31;33537;-85
2022/06/17 05:12:06;;;;;;;;;;;;;;;25.00;46.80;99357.50;4496136;31;34289;-85
2022/06/17 05:14:41;;;;;;;;;;;;;;;24.11;49.75;99369.09;4498564;31;34419;-84
2022/06/17 05:17:09;;;;;;;;;;;;;;;24.36;47.79;99362.81;4513173;31;34463;-87
2022/06/17 05:19:40;;;;;;;;;;;;;;;24.84;47.51;99353.78;4500888;31;33388;-85
2022/06/17 05:22:11;;;;;;;;;;;;;;;24.36;48.73;99360.16;4510998;31;35121;-88
2022/06/17 05:24:39;;;;;;;;;;;;;;;25.26;46.55;99353.72;4493478;31;34854;-85
2022/06/17 05:27:07;;;;;;;;;;;;;;;25.14;46.40;99354.28;4514998;31;34221;-85
2022/06/17 05:29:34;;;;;;;;;;;;;;;25.05;46.87;99355.53;4504936;31;33810;-86
2022/06/17 05:32:02;;;;;;;;;;;;;;;24.68;47.46;99354.44;4504482;31;33769;-85
2022/06/17 05:34:31;;;;;;;;;;;;;;;24.45;47.66;99359.81;4505801;31;34348;-85
2022/06/17 05:36:58;;;;;;;;;;;;;;;25.77;45.58;99351.47;4514150;31;34241;-84
2022/06/17 05:39:31;;;;;;;;;;;;;;;26.25;45.02;99347.41;4509228;31;32524;-86
2022/06/17 05:41:58;;;;;;;;;;;;;;;26.32;44.54;99351.50;4510129;31;33781;-85
2022/06/17 05:44:26;;;;;;;;;;;;;;;24.98;47.73;99360.22;4497373;31;35199;-85
2022/06/17 05:46:54;;;;;;;;;;;;;;;24.04;49.13;99375.56;4505195;31;34082;-87
2022/06/17 05:49:23;;;;;;;;;;;;;;;23.44;49.94;99374.25;4499684;31;33079;-84
2022/06/17 05:51:51;;;;;;;;;;;;;;;23.65;48.66;99386.72;4496897;31;35000;-85
2022/06/17 05:54:19;;;;;;;;;;;;;;;23.34;50.62;99388.75;4510742;31;33813;-86
2022/06/17 05:56:48;;;;;;;;;;;;;;;23.89;49.33;99389.38;4504158;31;34918;-85
2022/06/17 05:59:17;;;;;;;;;;;;;;;23.83;49.42;99403.72;4514285;31;33393;-86
2022/06/17 06:01:44;;;;;;;;;;;;;;;23.10;50.45;99401.91;4500646;31;35162;-83
2022/06/17 06:04:13;;;;;;;;;;;;;;;23.50;50.21;99404.00;4497636;31;34217;-86
2022/06/17 06:06:40;;;;;;;;;;;;;;;24.00;50.08;99405.72;4497052;31;34359;-83
2022/06/17 06:09:09;;;;;;;;;;;;;;;23.22;51.81;99405.91;4498769;31;33022;-87
2022/06/17 06:11:36;;;;;;;;;;;;;;;23.85;51.27;99403.66;4498563;31;34236;-91
2022/06/17 06:14:03;;;;;;;;;;;;;;;23.22;51.77;99411.19;4498636;31;35272;-85
2022/06/17 06:16:31;;;;;;;;;;;;;;;24.02;48.76;99415.34;4498441;31;34070;-85
2022/06/17 06:18:59;;;;;;;;;;;;;;;23.52;51.44;99417.19;4498474;31;33424;-84
2022/06/17 06:21:26;;;;;;;;;;;;;;;22.89;51.78;99423.78;4506490;31;34218;-83
2022/06/17 06:23:56;;;;;;;;;;;;;;;23.63;50.70;99416.78;4510314;31;35197;-85
2022/06/17 06:26:25;;;;;;;;;;;;;;;23.72;50.28;99414.72;4498493;31;33368;-87
2022/06/17 06:28:52;;;;;;;;;;;;;;;24.38;48.61;99424.56;4498808;31;33848;-85
2022/06/17 06:31:33;;;;;;;;;;;;;;;24.41;48.94;99422.69;4505385;31;34238;-83
2022/06/17 06:34:02;;;;;;;;;;;;;;;24.46;48.86;99426.00;4514851;31;34549;-89
2022/06/17 06:36:30;;;;;;;;;;;;;;;25.55;45.99;99429.41;4511236;31;34917;-84
2022/06/17 06:38:58;;;;;;;;;;;;;;;24.63;47.83;99435.94;4499300;31;34705;-85
2022/06/17 06:41:26;;;;;;;;;;;;;;;25.01;47.43;99436.16;4505929;31;33878;-88
2022/06/17 06:43:54;;;;;;;;;;;;;;;24.51;48.98;99434.66;4516432;31;34082;-86
2022/06/17 06:46:24;;;;;;;;;;;;;;;24.68;48.11;99441.06;4512633;31;34045;-88
2022/06/17 06:48:57;;;;;;;;;;;;;;;24.75;48.39;99443.41;4500056;31;34191;-86
2022/06/17 06:51:24;;;;;;;;;;;;;;;24.99;48.12;99438.00;4502841;31;35057;-84
2022/06/17 06:53:51;;;;;;;;;;;;;;;25.44;47.09;99442.31;4500107;31;34158;-86
2022/06/17 06:56:19;;;;;;;;;;;;;;;25.41;46.97;99437.13;4504913;31;33942;-86
2022/06/17 06:58:46;;;;;;;;;;;;;;;25.67;46.37;99433.31;4511676;31;33749;-85
2022/06/17 07:01:13;;;;;;;;;;;;;;;24.91;48.14;99437.47;4515580;31;34219;-87
2022/06/17 07:03:41;;;;;;;;;;;;;;;25.81;46.39;99440.72;4511311;31;35369;-87
2022/06/17 07:06:08;;;;;;;;;;;;;;;26.48;44.54;99431.38;4508458;31;34321;-88
2022/06/17 07:08:36;;;;;;;;;;;;;;;25.97;45.93;99439.06;4490708;31;33128;-86
2022/06/17 07:11:05;;;;;;;;;;;;;;;25.45;47.28;99442.22;4485666;31;35025;-88
2022/06/17 07:13:35;;;;;;;;;;;;;;;26.10;45.22;99442.91;4486634;31;34354;-86
2022/06/17 07:16:07;;;;;;;;;;;;;;;26.59;43.17;99445.88;4492316;31;33782;-86
2022/06/17 07:18:36;;;;;;;;;;;;;;;26.44;44.50;99441.28;4489455;31;33436;-85
2022/06/17 07:21:08;;;;;;;;;;;;;;;26.52;45.40;99452.47;4509363;31;33882;-86
2022/06/17 07:23:39;;;;;;;;;;;;;;;26.54;44.59;99455.91;4514597;31;33992;-85
2022/06/17 07:26:08;;;;;;;;;;;;;;;25.54;46.91;99456.06;4515651;31;34280;-84
2022/06/17 07:28:35;;;;;;;;;;;;;;;26.54;43.77;99453.22;4500629;31;34132;-85
2022/06/17 07:31:02;;;;;;;;;;;;;;;26.86;43.15;99453.47;4499634;31;34158;-86
2022/06/17 07:33:30;;;;;;;;;;;;;;;26.57;42.50;99453.09;4499759;31;35319;-85
2022/06/17 07:36:00;;;;;;;;;;;;;;;26.50;43.78;99454.31;4488502;31;34186;-87
2022/06/17 07:41:17;;;;;;;;;;;;;;;27.89;42.75;99451.75;4498482;31;33746;-85
2022/06/17 07:43:46;;;;;;;;;;;;;;;27.83;41.05;99457.41;4501869;31;33989;-85
2022/06/17 07:46:20;;;;;;;;;;;;;;;27.70;42.22;99456.31;4501327;31;34531;-86
2022/06/17 07:48:48;;;;;;;;;;;;;;;27.15;42.99;99455.56;4498243;31;34408;-86
2022/06/17 07:51:15;;;;;;;;;;;;;;;27.65;43.41;99461.88;4499959;31;34323;-86
2022/06/17 07:53:43;;;;;;;;;;;;;;;27.01;43.31;99451.81;4499645;31;34425;-86
2022/06/17 07:56:13;;;;;;;;;;;;;;;27.60;43.31;99455.94;4510088;31;34253;-86
2022/06/17 07:58:40;;;;;;;;;;;;;;;28.29;42.36;99460.22;4515278;31;33526;-86
2022/06/17 08:01:09;;;;;;;;;;;;;;;28.50;41.70;99445.72;4515347;31;35155;-85
2022/06/17 08:03:36;;;;;;;;;;;;;;;29.93;39.37;99455.97;4515607;31;34558;-84
2022/06/17 08:06:04;;;;;;;;;;;;;;;29.52;38.03;99459.37;4505558;31;34926;-88
2022/06/17 08:08:32;;;;;;;;;;;;;;;28.31;41.17;99466.34;4499881;31;33535;-85
2022/06/17 08:11:00;;;;;;;;;;;;;;;27.55;42.14;99463.31;4499338;31;34505;-86
2022/06/17 08:13:27;;;;;;;;;;;;;;;27.89;41.93;99462.41;4499730;31;34415;-89
2022/06/17 08:15:57;;;;;;;;;;;;;;;28.95;39.74;99465.38;4494077;31;34749;-84
2022/06/17 08:18:24;;;;;;;;;;;;;;;28.12;41.15;99464.69;4499727;31;33101;-86
2022/06/17 08:20:52;;;;;;;;;;;;;;;28.44;40.67;99472.72;4498415;31;33852;-87
2022/06/17 08:23:21;;;;;;;;;;;;;;;28.40;42.09;99471.19;4498340;31;35394;-88
2022/06/17 08:25:48;;;;;;;;;;;;;;;28.22;41.09;99470.34;4490632;31;34006;-84
2022/06/17 08:28:16;;;;;;;;;;;;;;;28.68;39.49;99464.28;4483659;32;33795;-86
2022/06/17 08:30:47;;;;;;;;;;;;;;;29.11;39.01;99476.06;4482191;32;34065;-87
2022/06/17 08:33:15;;;;;;;;;;;;;;;28.24;40.63;99472.97;4482477;32;34534;-84
2022/06/17 08:36:06;;;;;;;;;;;;;;;28.47;40.68;99472.56;4492355;31;34829;-84
2022/06/17 08:38:35;;;;;;;;;;;;;;;28.50;40.45;99464.41;4499221;31;33286;-87
2022/06/17 08:41:05;;;;;;;;;;;;;;;29.32;39.25;99468.56;4499074;31;34236;-87
2022/06/17 08:43:45;;;;;;;;;;;;;;;28.78;39.55;99473.50;4499520;31;34051;-86
2022/06/17 08:46:15;;;;;;;;;;;;;;;28.99;38.84;99472.31;4501687;31;34100;-84
2022/06/17 08:48:43;;;;;;;;;;;;;;;29.63;37.36;99466.78;4499348;31;34284;-85
2022/06/17 08:51:12;;;;;;;;;;;;;;;29.31;37.90;99467.72;4497802;31;35180;-82
2022/06/17 08:54:00;;;;;;;;;;;;;;;28.80;39.15;99472.47;4497635;31;35072;-84
2022/06/17 08:56:30;;;;;;;;;;;;;;;29.26;38.27;99474.31;4491977;31;33935;-87
2022/06/17 08:59:13;;;;;;;;;;;;;;;28.31;39.47;99475.19;4495310;31;33196;-86
2022/06/17 09:01:44;;;;;;;;;;;;;;;29.24;35.96;99471.69;4491378;31;34298;-82
2022/06/17 09:04:14;;;;;;;;;;;;;;;28.33;37.52;99475.09;4494395;31;34492;-89
2022/06/17 09:06:55;;;;;;;;;;;;;;;29.11;37.82;99478.72;4492794;31;35131;-84
2022/06/17 09:09:32;;;;;;;;;;;;;;;29.12;38.11;99482.25;4499010;31;34240;-86
2022/06/17 09:12:20;;;;;;;;;;;;;;;28.99;38.68;99485.66;4497563;31;33954;-86
2022/06/17 09:15:03;;;;;;;;;;;;;;;28.66;39.74;99488.41;4468390;31;34747;-85
2022/06/17 09:17:34;;;;;;;;;;;;;;;29.89;39.05;99484.75;4499056;31;34188;-87
2022/06/17 09:20:06;;;;;;;;;;;;;;;29.87;37.05;99489.31;4497916;31;34173;-88
2022/06/17 09:22:34;;;;;;;;;;;;;;;29.01;38.48;99488.22;4495528;31;34092;-84
2022/06/17 09:25:03;;;;;;;;;;;;;;;29.75;38.26;99490.06;4498931;31;34289;-86
2022/06/17 09:27:41;;;;;;;;;;;;;;;29.31;39.03;99498.91;4498888;31;34123;-89
2022/06/17 09:30:15;;;;;;;;;;;;;;;29.81;37.09;99492.34;4499052;31;33420;-90
2022/06/17 09:32:44;;;;;;;;;;;;;;;29.36;38.68;99496.84;4503644;31;34958;-90
2022/06/17 09:35:21;;;;;;;;;;;;;;;29.37;38.25;99503.91;4514750;31;35155;-84
2022/06/17 09:37:51;;;;;;;;;;;;;;;29.57;37.15;99495.56;4514955;31;34286;-82
2022/06/17 09:40:25;;;;;;;;;;;;;;;30.11;36.98;99494.09;4514619;31;33053;-91
2022/06/17 09:43:10;;;;;;;;;;;;;;;30.34;36.82;99495.34;4508687;31;33904;-85
2022/06/17 09:45:46;;;;;;;;;;;;;;;30.32;34.79;99495.44;4498594;31;34169;-86
2022/06/17 09:48:16;;;;;;;;;;;;;;;30.91;34.22;99505.94;4498565;31;34603;-87
2022/06/17 09:50:44;;;;;;;;;;;;;;;30.46;35.24;99508.81;4497184;31;33721;-85
2022/06/17 09:53:14;;;;;;;;;;;;;;;29.79;36.77;99504.97;4491231;31;34908;-83
2022/06/17 09:55:42;;;;;;;;;;;;;;;30.72;33.19;99504.47;4479279;31;35075;-86
2022/06/17 09:58:21;;;;;;;;;;;;;;;30.31;35.35;99512.47;4481632;32;33758;-87
2022/06/17 10:00:49;;;;;;;;;;;;;;;30.23;33.68;99517.41;4486332;31;34354;-84
2022/06/17 10:03:17;;;;;;;;;;;;;;;30.67;34.52;99525.28;4496782;31;35120;-87
2022/06/17 10:05:59;;;;;;;;;;;;;;;30.29;32.59;99525.06;4510183;31;34297;-83
2022/06/17 10:08:29;;;;;;;;;;;;;;;29.51;34.49;99536.00;4513674;31;35074;-87
2022/06/17 10:11:05;;;;;;;;;;;;;;;30.57;33.38;99528.66;4498299;31;33185;-84
2022/06/17 10:13:36;;;;;;;;;;;;;;;30.30;32.00;99524.09;4490232;31;33064;-82
2022/06/17 10:19:01;;;;;;;;;;;;;;;30.42;33.05;99534.03;4497339;31;34489;-83
2022/06/17 10:21:42;;;;;;;;;;;;;;;31.10;32.78;99532.38;4497411;31;33740;-84
2022/06/17 10:24:30;;;;;;;;;;;;;;;31.17;32.19;99539.88;4495608;31;34854;-83
2022/06/17 10:27:16;;;;;;;;;;;;;;;30.63;33.49;99523.78;4496720;31;35368;-82
2022/06/17 10:30:13;;;;;;;;;;;;;;;31.16;33.38;99548.03;4497189;31;34869;-86
2022/06/17 10:32:41;;;;;;;;;;;;;;;29.99;35.05;99543.84;4488444;31;33378;-88
2022/06/17 10:35:14;;;;;;;;;;;;;;;29.48;34.60;99544.19;4488429;31;33754;-85
2022/06/17 10:37:41;;;;;;;;;;;;;;;30.15;34.41;99541.06;4495252;31;34360;-84
2022/06/17 10:40:25;;;;;;;;;;;;;;;29.84;33.80;99534.09;4497310;31;33877;-83
2022/06/17 10:42:53;;;;;;;;;;;;;;;30.12;32.61;99538.59;4482059;31;33456;-85
2022/06/17 10:45:20;;;;;;;;;;;;;;;29.93;34.00;99534.41;4489878;31;34274;-85
2022/06/17 10:47:51;;;;;;;;;;;;;;;30.63;33.24;99544.31;4483040;31;35623;-87
2022/06/17 10:50:21;;;;;;;;;;;;;;;30.53;32.15;99536.00;4482282;32;35063;-86
2022/06/17 10:53:00;;;;;;;;;;;;;;;30.52;33.18;99548.53;4506076;31;34077;-84
2022/06/17 10:55:35;;;;;;;;;;;;;;;30.56;34.78;99543.84;4496528;31;35029;-86
2022/06/17 10:58:04;;;;;;;;;;;;;;;29.87;34.25;99539.25;4471024;31;33605;-86
2022/06/17 11:00:34;;;;;;;;;;;;;;;30.14;33.67;99536.69;4482550;31;34482;-87
2022/06/17 11:03:14;;;;;;;;;;;;;;;29.70;34.64;99542.91;4498043;31;32861;-84
2022/06/17 11:05:42;;;;;;;;;;;;;;;30.24;32.65;99545.91;4496427;31;33936;-85
2022/06/17 11:08:19;;;;;;;;;;;;;;;30.26;32.72;99536.81;4496486;31;34552;-81
2022/06/17 11:10:54;;;;;;;;;;;;;;;30.93;31.64;99534.34;4496772;31;35099;-82
2022/06/17 11:13:21;;;;;;;;;;;;;;;30.75;32.71;99538.22;4512356;31;33493;-85
2022/06/17 11:15:56;;;;;;;;;;;;;;;29.85;32.64;99533.97;4512402;31;33530;-84
2022/06/17 11:18:24;;;;;;;;;;;;;;;31.04;31.02;99528.28;4500333;31;34362;-83
2022/06/17 11:21:12;;;;;;;;;;;;;;;29.74;32.65;99540.00;4496558;31;33849;-82
2022/06/17 11:23:43;;;;;;;;;;;;;;;30.47;28.67;99531.94;4499586;31;33245;-82
2022/06/17 11:26:19;;;;;;;;;;;;;;;30.25;30.56;99536.91;4498612;31;34827;-81
2022/06/17 11:28:50;;;;;;;;;;;;;;;30.59;30.39;99543.66;4483006;31;34254;-82
2022/06/17 11:31:21;;;;;;;;;;;;;;;30.67;30.71;99545.84;4491874;31;33964;-84
2022/06/17 11:33:51;;;;;;;;;;;;;;;29.33;31.86;99539.75;4515736;31;34141;-82
2022/06/17 11:36:24;;;;;;;;;;;;;;;29.28;31.46;99544.47;4515419;31;34061;-82
2022/06/17 11:38:51;;;;;;;;;;;;;;;30.12;31.76;99538.59;4515796;31;34518;-82
2022/06/17 11:41:22;;;;;;;;;;;;;;;29.51;32.08;99549.34;4505466;31;33624;-82
2022/06/17 11:43:50;;;;;;;;;;;;;;;30.70;30.99;99545.66;4485468;31;34411;-81
2022/06/17 11:46:24;;;;;;;;;;;;;;;30.11;31.40;99539.53;4496176;31;34079;-84
2022/06/17 11:48:57;;;;;;;;;;;;;;;30.54;30.10;99551.13;4514119;31;34478;-82
2022/06/17 11:51:25;;;;;;;;;;;;;;;29.85;32.67;99541.13;4499440;31;33844;-83
2022/06/17 11:53:54;;;;;;;;;;;;;;;29.23;33.04;99544.75;4487778;31;34112;-85
2022/06/17 11:56:35;;;;;;;;;;;;;;;29.77;32.23;99531.78;4495790;31;34193;-88
2022/06/17 11:59:09;;;;;;;;;;;;;;;30.32;32.02;99529.37;4481891;32;34247;-81
2022/06/17 12:01:37;;;;;;;;;;;;;;;30.21;32.44;99528.22;4484428;31;34430;-84
2022/06/17 12:04:04;;;;;;;;;;;;;;;30.22;33.33;99526.41;4484239;31;32702;-82
2022/06/17 12:06:52;;;;;;;;;;;;;;;30.18;30.18;99515.03;4488882;31;34387;-82
2022/06/17 12:09:22;;;;;;;;;;;;;;;29.79;30.92;99531.69;4494628;31;33932;-82
2022/06/17 12:11:50;;;;;;;;;;;;;;;29.77;30.30;99518.41;4483504;31;34034;-85
2022/06/17 12:14:30;;;;;;;;;;;;;;;29.50;31.09;99510.22;4494731;31;33608;-83
2022/06/17 12:16:57;;;;;;;;;;;;;;;28.97;32.13;99511.53;4485609;31;35090;-84
2022/06/17 12:19:44;;;;;;;;;;;;;;;29.11;29.85;99509.91;4496904;31;32816;-83
2022/06/17 12:22:16;;;;;;;;;;;;;;;29.66;30.20;99498.63;4499450;31;35030;-83
2022/06/17 12:24:49;;;;;;;;;;;;;;;29.51;30.81;99506.63;4494189;31;33595;-83
2022/06/17 12:27:29;;;;;;;;;;;;;;;29.15;31.76;99506.09;4497513;31;34304;-84
2022/06/17 12:30:21;;;;;;;;;;;;;;;29.08;30.44;99509.12;4505188;31;34362;-83
2022/06/17 12:32:49;;;;;;;;;;;;;;;29.37;31.22;99503.91;4508304;31;34288;-80
2022/06/17 12:35:22;;;;;;;;;;;;;;;28.74;30.81;99501.31;4495303;31;33356;-84
2022/06/17 12:37:51;;;;;;;;;;;;;;;29.37;30.93;99503.91;4499482;31;35110;-84
2022/06/17 12:40:21;;;;;;;;;;;;;;;29.38;30.04;99510.94;4498331;31;33495;-87
2022/06/17 12:42:53;;;;;;;;;;;;;;;29.92;28.65;99494.38;4494747;31;34869;-86
2022/06/17 12:45:21;;;;;;;;;;;;;;;30.03;29.51;99498.09;4494659;31;34040;-83
2022/06/17 12:47:55;;;;;;;;;;;;;;;29.44;29.58;99499.91;4500550;31;33800;-82
2022/06/17 12:53:31;;;;;;;;;;;;;;;29.69;30.80;99501.97;4498967;31;34760;-83
2022/06/17 12:56:05;;;;;;;;;;;;;;;29.75;28.90;99492.75;4498425;31;33000;-83
2022/06/17 12:58:51;;;;;;;;;;;;;;;29.24;28.61;99484.19;4488502;31;34248;-84
2022/06/17 13:01:25;;;;;;;;;;;;;;;28.94;29.98;99485.00;4483236;31;34440;-83
2022/06/17 13:03:59;;;;;;;;;;;;;;;28.50;31.13;99480.41;4483374;31;33920;-83
2022/06/17 13:06:40;;;;;;;;;;;;;;;28.72;31.11;99474.72;4493389;31;34059;-85
2022/06/17 13:09:16;;;;;;;;;;;;;;;29.13;31.41;99491.97;4482701;31;35036;-86
2022/06/17 13:12:07;;;;;;;;;;;;;;;29.45;31.49;99480.25;4498800;31;35144;-84
2022/06/17 13:14:40;;;;;;;;;;;;;;;29.56;31.65;99487.62;4498708;31;34946;-84
2022/06/17 13:17:28;;;;;;;;;;;;;;;30.04;31.44;99483.78;4497526;31;34310;-85
2022/06/17 13:20:01;;;;;;;;;;;;;;;29.36;30.76;99480.81;4512754;31;34239;-84